Itaguaje, Brazil
Current Conditions -  °F | °C
As of 3:00 PM on Monday 20 Oct 2014 (Local Time) from SBDN Reporting Station
Rain Showers Rain Showers  
Wind Chill: 86°   Ceiling: 4000
Heat Index: 86°   Visibility: 6mi
Dew Point: 61°   Wind: 15mph
Humidity: 43%   Direction: 240°WSW
Pressure: 29.97"   Gusts: NA
Location:  22.62°S, 51.97°W
Report Text: SBDN 201800Z 24013KT 9999 VCSH BKN040 BKN080 30/16 Q1015
Loading
Personal Weather Stations






























Interactive Weather Map
Tropical Storm Tracking
New forecast layout! Learn more

10-Day Weather Forecast

Advertisements
Track Severe Weather on mobile